Weather at Jarlsberg Airfield

Public forecast

Using degrees Celsius for public forecast. Weather courtesy of forecast.io.

Closest aviation weather report (METAR) to Jarlsberg Airfield

Closest report is Sandefjord Airport, Torp, 7.6 nm (14.0 km) SSW. Retrieved 2021/04/11 23:20 UTC (40 minutes ago):

ENTO 112320Z AUTO 02009KT 350V050 5000 -SN OVC002/// 01/01 Q1012

Closest aviation forecast (TAF) to Jarlsberg Airfield

Closest forecast is Sandefjord Airport, Torp, 7.6 nm (14.0 km) SSW. Retrieved 2021/04/11 18:03 UTC (6 hours ago):

TAF ENTO 111700Z 1118/1218 04010KT 9999 -RASN BKN015 TEMPO 1118/1214 1200 SN VV008 PROB40 TEMPO 1214/1218 1200 SHSN BKN008 FEW020CB